sensor_id;sensor_type;location;lat;lon;timestamp;P1;durP1;ratioP1;P2;durP2;ratioP2
52708;SDS011;38606;52.986;6.980;2023-06-04T00:00:12;9.70;;;4.00;;
52708;SDS011;38606;52.986;6.980;2023-06-04T00:02:38;8.32;;;3.28;;
52708;SDS011;38606;52.986;6.980;2023-06-04T00:05:04;11.55;;;4.28;;
52708;SDS011;38606;52.986;6.980;2023-06-04T00:07:30;10.25;;;3.53;;
52708;SDS011;38606;52.986;6.980;2023-06-04T00:09:55;9.50;;;3.85;;
52708;SDS011;38606;52.986;6.980;2023-06-04T00:12:21;7.60;;;3.60;;
52708;SDS011;38606;52.986;6.980;2023-06-04T00:14:47;11.82;;;4.13;;
52708;SDS011;38606;52.986;6.980;2023-06-04T00:17:13;8.50;;;3.25;;
52708;SDS011;38606;52.986;6.980;2023-06-04T00:19:39;9.70;;;3.95;;
52708;SDS011;38606;52.986;6.980;2023-06-04T00:22:06;13.32;;;3.78;;
52708;SDS011;38606;52.986;6.980;2023-06-04T00:24:31;12.73;;;4.25;;
52708;SDS011;38606;52.986;6.980;2023-06-04T00:26:57;9.88;;;4.10;;
52708;SDS011;38606;52.986;6.980;2023-06-04T00:29:23;14.10;;;4.13;;
52708;SDS011;38606;52.986;6.980;2023-06-04T00:31:49;11.45;;;4.93;;
52708;SDS011;38606;52.986;6.980;2023-06-04T00:34:16;15.40;;;4.43;;
52708;SDS011;38606;52.986;6.980;2023-06-04T00:36:42;7.30;;;4.00;;
52708;SDS011;38606;52.986;6.980;2023-06-04T00:39:08;12.00;;;4.43;;
52708;SDS011;38606;52.986;6.980;2023-06-04T00:41:34;9.57;;;3.70;;
52708;SDS011;38606;52.986;6.980;2023-06-04T00:44:00;10.38;;;4.00;;
52708;SDS011;38606;52.986;6.980;2023-06-04T00:46:27;14.13;;;4.70;;
52708;SDS011;38606;52.986;6.980;2023-06-04T00:48:54;10.63;;;4.30;;
52708;SDS011;38606;52.986;6.980;2023-06-04T00:51:20;7.75;;;4.20;;
52708;SDS011;38606;52.986;6.980;2023-06-04T00:53:49;10.25;;;4.30;;
52708;SDS011;38606;52.986;6.980;2023-06-04T00:56:16;11.02;;;4.05;;
52708;SDS011;38606;52.986;6.980;2023-06-04T00:58:42;7.47;;;3.58;;
52708;SDS011;38606;52.986;6.980;2023-06-04T01:01:45;15.77;;;5.05;;
52708;SDS011;38606;52.986;6.980;2023-06-04T01:04:18;11.05;;;4.28;;
52708;SDS011;38606;52.986;6.980;2023-06-04T01:06:58;11.18;;;3.67;;
52708;SDS011;38606;52.986;6.980;2023-06-04T01:09:28;12.77;;;4.35;;
52708;SDS011;38606;52.986;6.980;2023-06-04T01:11:55;12.20;;;4.43;;
52708;SDS011;38606;52.986;6.980;2023-06-04T01:14:27;9.00;;;4.07;;
52708;SDS011;38606;52.986;6.980;2023-06-04T01:16:58;17.17;;;5.10;;
52708;SDS011;38606;52.986;6.980;2023-06-04T01:22:43;14.77;;;4.65;;
52708;SDS011;38606;52.986;6.980;2023-06-04T01:25:14;12.38;;;5.03;;
52708;SDS011;38606;52.986;6.980;2023-06-04T01:27:50;16.83;;;5.60;;
52708;SDS011;38606;52.986;6.980;2023-06-04T01:30:26;12.70;;;4.53;;
52708;SDS011;38606;52.986;6.980;2023-06-04T01:32:58;11.25;;;4.47;;
52708;SDS011;38606;52.986;6.980;2023-06-04T01:35:25;9.93;;;4.05;;
52708;SDS011;38606;52.986;6.980;2023-06-04T01:37:52;13.68;;;5.10;;
52708;SDS011;38606;52.986;6.980;2023-06-04T01:40:19;11.80;;;4.60;;
52708;SDS011;38606;52.986;6.980;2023-06-04T01:42:45;17.00;;;5.80;;
52708;SDS011;38606;52.986;6.980;2023-06-04T01:45:11;13.60;;;5.22;;
52708;SDS011;38606;52.986;6.980;2023-06-04T01:47:37;9.55;;;4.93;;
52708;SDS011;38606;52.986;6.980;2023-06-04T01:50:04;16.17;;;5.35;;
52708;SDS011;38606;52.986;6.980;2023-06-04T01:52:34;15.93;;;5.38;;
52708;SDS011;38606;52.986;6.980;2023-06-04T01:55:04;12.52;;;5.15;;
52708;SDS011;38606;52.986;6.980;2023-06-04T01:57:32;11.32;;;5.03;;
52708;SDS011;38606;52.986;6.980;2023-06-04T01:59:59;14.52;;;5.60;;
52708;SDS011;38606;52.986;6.980;2023-06-04T02:02:25;13.38;;;5.60;;
52708;SDS011;38606;52.986;6.980;2023-06-04T02:04:51;13.88;;;5.80;;
52708;SDS011;38606;52.986;6.980;2023-06-04T02:07:18;14.60;;;5.10;;
52708;SDS011;38606;52.986;6.980;2023-06-04T02:09:47;14.30;;;5.75;;
52708;SDS011;38606;52.986;6.980;2023-06-04T02:12:14;14.75;;;5.30;;
52708;SDS011;38606;52.986;6.980;2023-06-04T02:14:40;17.45;;;5.55;;
52708;SDS011;38606;52.986;6.980;2023-06-04T02:17:07;16.45;;;7.18;;
52708;SDS011;38606;52.986;6.980;2023-06-04T02:19:41;16.45;;;6.03;;
52708;SDS011;38606;52.986;6.980;2023-06-04T02:22:15;16.75;;;6.50;;
52708;SDS011;38606;52.986;6.980;2023-06-04T02:24:41;15.50;;;6.35;;
52708;SDS011;38606;52.986;6.980;2023-06-04T02:27:08;13.88;;;5.65;;
52708;SDS011;38606;52.986;6.980;2023-06-04T02:29:34;16.35;;;6.10;;
52708;SDS011;38606;52.986;6.980;2023-06-04T02:32:00;14.98;;;6.15;;
52708;SDS011;38606;52.986;6.980;2023-06-04T02:34:27;19.30;;;6.70;;
52708;SDS011;38606;52.986;6.980;2023-06-04T02:36:52;16.08;;;5.63;;
52708;SDS011;38606;52.986;6.980;2023-06-04T02:39:19;12.20;;;6.03;;
52708;SDS011;38606;52.986;6.980;2023-06-04T02:41:45;15.32;;;7.03;;
52708;SDS011;38606;52.986;6.980;2023-06-04T02:44:11;19.05;;;6.20;;
52708;SDS011;38606;52.986;6.980;2023-06-04T02:46:37;14.23;;;6.50;;
52708;SDS011;38606;52.986;6.980;2023-06-04T02:49:03;13.75;;;5.78;;
52708;SDS011;38606;52.986;6.980;2023-06-04T02:51:29;10.50;;;6.10;;
52708;SDS011;38606;52.986;6.980;2023-06-04T02:53:55;14.00;;;6.25;;
52708;SDS011;38606;52.986;6.980;2023-06-04T02:56:21;16.02;;;6.15;;
52708;SDS011;38606;52.986;6.980;2023-06-04T02:58:50;19.02;;;6.93;;
52708;SDS011;38606;52.986;6.980;2023-06-04T03:01:20;16.45;;;6.68;;
52708;SDS011;38606;52.986;6.980;2023-06-04T03:03:47;15.45;;;6.55;;
52708;SDS011;38606;52.986;6.980;2023-06-04T03:06:13;12.73;;;5.85;;
52708;SDS011;38606;52.986;6.980;2023-06-04T03:08:40;12.75;;;6.43;;
52708;SDS011;38606;52.986;6.980;2023-06-04T03:11:06;15.80;;;6.47;;
52708;SDS011;38606;52.986;6.980;2023-06-04T03:13:32;13.18;;;5.63;;
52708;SDS011;38606;52.986;6.980;2023-06-04T03:15:58;13.60;;;5.82;;
52708;SDS011;38606;52.986;6.980;2023-06-04T03:18:27;17.35;;;6.28;;
52708;SDS011;38606;52.986;6.980;2023-06-04T03:20:53;13.63;;;6.50;;
52708;SDS011;38606;52.986;6.980;2023-06-04T03:23:20;16.55;;;6.57;;
52708;SDS011;38606;52.986;6.980;2023-06-04T03:25:46;19.73;;;6.90;;
52708;SDS011;38606;52.986;6.980;2023-06-04T03:28:12;13.95;;;6.40;;
52708;SDS011;38606;52.986;6.980;2023-06-04T03:30:39;19.60;;;6.20;;
52708;SDS011;38606;52.986;6.980;2023-06-04T03:33:05;14.18;;;6.97;;
52708;SDS011;38606;52.986;6.980;2023-06-04T03:35:31;19.25;;;6.55;;
52708;SDS011;38606;52.986;6.980;2023-06-04T03:37:56;14.65;;;6.90;;
52708;SDS011;38606;52.986;6.980;2023-06-04T03:40:22;16.75;;;6.43;;
52708;SDS011;38606;52.986;6.980;2023-06-04T03:42:48;15.60;;;6.40;;
52708;SDS011;38606;52.986;6.980;2023-06-04T03:45:13;18.15;;;6.63;;
52708;SDS011;38606;52.986;6.980;2023-06-04T03:47:39;15.60;;;6.70;;
52708;SDS011;38606;52.986;6.980;2023-06-04T03:50:05;16.95;;;6.97;;
52708;SDS011;38606;52.986;6.980;2023-06-04T03:52:31;15.20;;;6.90;;
52708;SDS011;38606;52.986;6.980;2023-06-04T03:54:58;15.60;;;6.82;;
52708;SDS011;38606;52.986;6.980;2023-06-04T03:57:23;16.88;;;6.60;;
52708;SDS011;38606;52.986;6.980;2023-06-04T03:59:49;17.20;;;7.32;;
52708;SDS011;38606;52.986;6.980;2023-06-04T04:02:15;18.90;;;7.85;;
52708;SDS011;38606;52.986;6.980;2023-06-04T04:04:43;17.80;;;7.05;;
52708;SDS011;38606;52.986;6.980;2023-06-04T04:07:09;15.73;;;8.25;;
52708;SDS011;38606;52.986;6.980;2023-06-04T04:09:35;17.50;;;7.63;;
52708;SDS011;38606;52.986;6.980;2023-06-04T04:12:02;16.42;;;7.43;;
52708;SDS011;38606;52.986;6.980;2023-06-04T04:14:28;13.95;;;7.20;;
52708;SDS011;38606;52.986;6.980;2023-06-04T04:16:54;15.55;;;7.97;;
52708;SDS011;38606;52.986;6.980;2023-06-04T04:19:20;13.98;;;7.38;;
52708;SDS011;38606;52.986;6.980;2023-06-04T04:21:46;13.20;;;7.88;;
52708;SDS011;38606;52.986;6.980;2023-06-04T04:24:26;15.07;;;7.80;;
52708;SDS011;38606;52.986;6.980;2023-06-04T04:26:52;16.67;;;8.60;;
52708;SDS011;38606;52.986;6.980;2023-06-04T04:29:21;11.35;;;7.43;;
52708;SDS011;38606;52.986;6.980;2023-06-04T04:31:49;18.15;;;9.00;;
52708;SDS011;38606;52.986;6.980;2023-06-04T04:34:16;19.23;;;8.73;;
52708;SDS011;38606;52.986;6.980;2023-06-04T04:36:43;17.48;;;8.48;;
52708;SDS011;38606;52.986;6.980;2023-06-04T04:39:09;20.42;;;9.35;;
52708;SDS011;38606;52.986;6.980;2023-06-04T04:41:36;19.92;;;9.30;;
52708;SDS011;38606;52.986;6.980;2023-06-04T04:44:03;22.38;;;10.30;;
52708;SDS011;38606;52.986;6.980;2023-06-04T04:46:30;16.88;;;9.68;;
52708;SDS011;38606;52.986;6.980;2023-06-04T04:48:56;24.05;;;10.05;;
52708;SDS011;38606;52.986;6.980;2023-06-04T04:51:21;15.45;;;9.10;;
52708;SDS011;38606;52.986;6.980;2023-06-04T04:53:47;22.15;;;9.98;;
52708;SDS011;38606;52.986;6.980;2023-06-04T04:56:13;16.83;;;8.68;;
52708;SDS011;38606;52.986;6.980;2023-06-04T04:58:39;17.40;;;9.50;;
52708;SDS011;38606;52.986;6.980;2023-06-04T05:01:05;14.55;;;8.30;;
52708;SDS011;38606;52.986;6.980;2023-06-04T05:03:31;16.95;;;9.45;;
52708;SDS011;38606;52.986;6.980;2023-06-04T05:05:56;20.23;;;9.55;;
52708;SDS011;38606;52.986;6.980;2023-06-04T05:08:22;20.58;;;9.30;;
52708;SDS011;38606;52.986;6.980;2023-06-04T05:10:49;16.27;;;8.55;;
52708;SDS011;38606;52.986;6.980;2023-06-04T05:13:15;15.88;;;8.85;;
52708;SDS011;38606;52.986;6.980;2023-06-04T05:15:42;13.98;;;8.43;;
52708;SDS011;38606;52.986;6.980;2023-06-04T05:18:08;13.98;;;7.97;;
52708;SDS011;38606;52.986;6.980;2023-06-04T05:20:34;19.00;;;8.07;;
52708;SDS011;38606;52.986;6.980;2023-06-04T05:23:03;16.88;;;8.30;;
52708;SDS011;38606;52.986;6.980;2023-06-04T05:25:29;15.00;;;7.85;;
52708;SDS011;38606;52.986;6.980;2023-06-04T05:27:58;14.45;;;7.15;;
52708;SDS011;38606;52.986;6.980;2023-06-04T05:30:24;14.15;;;7.72;;
52708;SDS011;38606;52.986;6.980;2023-06-04T05:32:53;11.88;;;7.07;;
52708;SDS011;38606;52.986;6.980;2023-06-04T05:35:19;13.15;;;6.97;;
52708;SDS011;38606;52.986;6.980;2023-06-04T05:37:45;15.73;;;7.28;;
52708;SDS011;38606;52.986;6.980;2023-06-04T05:40:18;15.82;;;7.68;;
52708;SDS011;38606;52.986;6.980;2023-06-04T05:42:46;17.23;;;7.38;;
52708;SDS011;38606;52.986;6.980;2023-06-04T05:45:13;13.90;;;6.00;;
52708;SDS011;38606;52.986;6.980;2023-06-04T05:47:38;16.98;;;5.95;;
52708;SDS011;38606;52.986;6.980;2023-06-04T05:50:05;14.52;;;5.43;;
52708;SDS011;38606;52.986;6.980;2023-06-04T05:52:31;17.15;;;5.13;;
52708;SDS011;38606;52.986;6.980;2023-06-04T05:54:58;13.13;;;5.05;;
52708;SDS011;38606;52.986;6.980;2023-06-04T05:57:24;17.80;;;5.70;;
52708;SDS011;38606;52.986;6.980;2023-06-04T05:59:50;13.75;;;5.13;;
52708;SDS011;38606;52.986;6.980;2023-06-04T06:02:15;14.30;;;4.68;;
52708;SDS011;38606;52.986;6.980;2023-06-04T06:04:42;12.60;;;5.25;;
52708;SDS011;38606;52.986;6.980;2023-06-04T06:07:08;14.18;;;5.22;;
52708;SDS011;38606;52.986;6.980;2023-06-04T06:09:33;10.23;;;4.78;;
52708;SDS011;38606;52.986;6.980;2023-06-04T06:12:00;15.68;;;4.88;;
52708;SDS011;38606;52.986;6.980;2023-06-04T06:14:26;15.38;;;5.88;;
52708;SDS011;38606;52.986;6.980;2023-06-04T06:16:52;10.98;;;5.13;;
52708;SDS011;38606;52.986;6.980;2023-06-04T06:19:18;10.32;;;4.75;;
52708;SDS011;38606;52.986;6.980;2023-06-04T06:21:44;14.02;;;5.05;;
52708;SDS011;38606;52.986;6.980;2023-06-04T06:24:10;13.02;;;4.38;;
52708;SDS011;38606;52.986;6.980;2023-06-04T06:26:36;13.13;;;4.90;;
52708;SDS011;38606;52.986;6.980;2023-06-04T06:29:02;11.23;;;4.45;;
52708;SDS011;38606;52.986;6.980;2023-06-04T06:31:27;10.05;;;3.83;;
52708;SDS011;38606;52.986;6.980;2023-06-04T06:33:53;12.75;;;4.25;;
52708;SDS011;38606;52.986;6.980;2023-06-04T06:36:19;11.82;;;3.63;;
52708;SDS011;38606;52.986;6.980;2023-06-04T06:38:45;11.57;;;3.63;;
52708;SDS011;38606;52.986;6.980;2023-06-04T06:41:11;10.95;;;3.28;;
52708;SDS011;38606;52.986;6.980;2023-06-04T06:43:37;11.95;;;3.60;;
52708;SDS011;38606;52.986;6.980;2023-06-04T06:46:03;12.95;;;3.15;;
52708;SDS011;38606;52.986;6.980;2023-06-04T06:48:29;9.27;;;2.95;;
52708;SDS011;38606;52.986;6.980;2023-06-04T06:50:54;9.43;;;2.90;;
52708;SDS011;38606;52.986;6.980;2023-06-04T06:53:20;12.85;;;3.42;;
52708;SDS011;38606;52.986;6.980;2023-06-04T06:55:46;8.57;;;3.10;;
52708;SDS011;38606;52.986;6.980;2023-06-04T06:58:12;7.70;;;2.97;;
52708;SDS011;38606;52.986;6.980;2023-06-04T07:00:38;12.65;;;3.40;;
52708;SDS011;38606;52.986;6.980;2023-06-04T07:03:04;8.63;;;2.88;;
52708;SDS011;38606;52.986;6.980;2023-06-04T07:05:30;10.85;;;2.58;;
52708;SDS011;38606;52.986;6.980;2023-06-04T07:07:55;12.55;;;3.08;;
52708;SDS011;38606;52.986;6.980;2023-06-04T07:10:22;12.73;;;2.72;;
52708;SDS011;38606;52.986;6.980;2023-06-04T07:12:49;9.45;;;2.42;;
52708;SDS011;38606;52.986;6.980;2023-06-04T07:15:15;10.27;;;2.55;;
52708;SDS011;38606;52.986;6.980;2023-06-04T07:17:41;10.25;;;2.58;;
52708;SDS011;38606;52.986;6.980;2023-06-04T07:20:07;17.23;;;3.15;;
52708;SDS011;38606;52.986;6.980;2023-06-04T07:22:34;9.57;;;2.33;;
52708;SDS011;38606;52.986;6.980;2023-06-04T07:25:00;10.80;;;2.85;;
52708;SDS011;38606;52.986;6.980;2023-06-04T07:27:27;10.38;;;2.65;;
52708;SDS011;38606;52.986;6.980;2023-06-04T07:29:53;8.80;;;2.60;;
52708;SDS011;38606;52.986;6.980;2023-06-04T07:32:19;9.65;;;2.55;;
52708;SDS011;38606;52.986;6.980;2023-06-04T07:34:44;10.77;;;2.60;;
52708;SDS011;38606;52.986;6.980;2023-06-04T07:37:10;9.02;;;2.45;;
52708;SDS011;38606;52.986;6.980;2023-06-04T07:39:38;15.77;;;3.17;;
52708;SDS011;38606;52.986;6.980;2023-06-04T07:42:04;8.98;;;2.75;;
52708;SDS011;38606;52.986;6.980;2023-06-04T07:44:32;7.03;;;2.10;;
52708;SDS011;38606;52.986;6.980;2023-06-04T07:46:58;7.50;;;2.17;;
52708;SDS011;38606;52.986;6.980;2023-06-04T07:49:24;7.13;;;1.90;;
52708;SDS011;38606;52.986;6.980;2023-06-04T07:51:49;5.75;;;2.03;;
52708;SDS011;38606;52.986;6.980;2023-06-04T07:54:16;6.85;;;2.15;;
52708;SDS011;38606;52.986;6.980;2023-06-04T07:56:42;9.00;;;2.08;;
52708;SDS011;38606;52.986;6.980;2023-06-04T07:59:09;9.73;;;1.70;;
52708;SDS011;38606;52.986;6.980;2023-06-04T08:01:34;7.25;;;1.83;;
52708;SDS011;38606;52.986;6.980;2023-06-04T08:04:00;7.60;;;1.83;;
52708;SDS011;38606;52.986;6.980;2023-06-04T08:06:26;9.38;;;1.90;;
52708;SDS011;38606;52.986;6.980;2023-06-04T08:08:52;7.75;;;1.80;;
52708;SDS011;38606;52.986;6.980;2023-06-04T08:11:18;3.67;;;1.35;;
52708;SDS011;38606;52.986;6.980;2023-06-04T08:13:44;7.18;;;1.83;;
52708;SDS011;38606;52.986;6.980;2023-06-04T08:16:10;9.35;;;2.05;;
52708;SDS011;38606;52.986;6.980;2023-06-04T08:18:42;7.72;;;2.20;;
52708;SDS011;38606;52.986;6.980;2023-06-04T08:21:09;5.63;;;1.90;;
52708;SDS011;38606;52.986;6.980;2023-06-04T08:23:41;14.35;;;1.95;;
52708;SDS011;38606;52.986;6.980;2023-06-04T08:26:07;6.07;;;2.03;;
52708;SDS011;38606;52.986;6.980;2023-06-04T08:28:33;36.25;;;3.22;;
52708;SDS011;38606;52.986;6.980;2023-06-04T08:30:59;5.28;;;1.30;;
52708;SDS011;38606;52.986;6.980;2023-06-04T08:33:25;4.05;;;1.50;;
52708;SDS011;38606;52.986;6.980;2023-06-04T08:35:53;6.22;;;1.50;;
52708;SDS011;38606;52.986;6.980;2023-06-04T08:38:19;7.18;;;1.70;;
52708;SDS011;38606;52.986;6.980;2023-06-04T08:40:47;7.35;;;1.55;;
52708;SDS011;38606;52.986;6.980;2023-06-04T08:43:17;5.65;;;1.40;;
52708;SDS011;38606;52.986;6.980;2023-06-04T08:45:43;5.88;;;1.70;;
52708;SDS011;38606;52.986;6.980;2023-06-04T08:48:14;6.80;;;1.50;;
52708;SDS011;38606;52.986;6.980;2023-06-04T08:50:42;5.68;;;1.88;;
52708;SDS011;38606;52.986;6.980;2023-06-04T08:53:13;5.68;;;1.92;;
52708;SDS011;38606;52.986;6.980;2023-06-04T08:55:41;6.13;;;1.95;;
52708;SDS011;38606;52.986;6.980;2023-06-04T08:58:07;6.20;;;1.35;;
52708;SDS011;38606;52.986;6.980;2023-06-04T09:00:36;7.63;;;2.45;;
52708;SDS011;38606;52.986;6.980;2023-06-04T09:03:02;9.45;;;1.70;;
52708;SDS011;38606;52.986;6.980;2023-06-04T09:05:30;7.65;;;1.65;;
52708;SDS011;38606;52.986;6.980;2023-06-04T09:07:59;47.97;;;3.67;;
52708;SDS011;38606;52.986;6.980;2023-06-04T09:10:26;135.80;;;10.02;;
52708;SDS011;38606;52.986;6.980;2023-06-04T09:12:55;99.50;;;7.63;;
52708;SDS011;38606;52.986;6.980;2023-06-04T09:15:26;8.77;;;1.77;;
52708;SDS011;38606;52.986;6.980;2023-06-04T09:17:52;11.23;;;2.00;;
52708;SDS011;38606;52.986;6.980;2023-06-04T09:20:18;114.30;;;10.45;;
52708;SDS011;38606;52.986;6.980;2023-06-04T09:22:47;3.25;;;1.23;;
52708;SDS011;38606;52.986;6.980;2023-06-04T09:25:21;4.90;;;1.55;;
52708;SDS011;38606;52.986;6.980;2023-06-04T09:27:50;4.45;;;1.63;;
52708;SDS011;38606;52.986;6.980;2023-06-04T09:30:16;2.88;;;1.33;;
52708;SDS011;38606;52.986;6.980;2023-06-04T09:32:42;2.92;;;1.50;;
52708;SDS011;38606;52.986;6.980;2023-06-04T09:35:13;4.95;;;1.60;;
52708;SDS011;38606;52.986;6.980;2023-06-04T09:37:41;3.00;;;1.20;;
52708;SDS011;38606;52.986;6.980;2023-06-04T09:40:08;3.70;;;1.23;;
52708;SDS011;38606;52.986;6.980;2023-06-04T09:42:47;4.88;;;1.88;;
52708;SDS011;38606;52.986;6.980;2023-06-04T09:48:00;4.45;;;1.33;;
52708;SDS011;38606;52.986;6.980;2023-06-04T09:50:28;3.13;;;1.60;;
52708;SDS011;38606;52.986;6.980;2023-06-04T09:52:56;4.72;;;1.30;;
52708;SDS011;38606;52.986;6.980;2023-06-04T09:55:22;5.68;;;1.77;;
52708;SDS011;38606;52.986;6.980;2023-06-04T09:57:51;4.68;;;1.20;;
52708;SDS011;38606;52.986;6.980;2023-06-04T10:00:18;4.28;;;1.45;;
52708;SDS011;38606;52.986;6.980;2023-06-04T10:02:46;4.53;;;1.63;;
52708;SDS011;38606;52.986;6.980;2023-06-04T10:05:13;5.72;;;1.60;;
52708;SDS011;38606;52.986;6.980;2023-06-04T10:07:43;5.78;;;1.85;;
52708;SDS011;38606;52.986;6.980;2023-06-04T10:10:20;3.15;;;1.50;;
52708;SDS011;38606;52.986;6.980;2023-06-04T10:12:50;3.22;;;1.40;;
52708;SDS011;38606;52.986;6.980;2023-06-04T10:15:32;3.92;;;1.60;;
52708;SDS011;38606;52.986;6.980;2023-06-04T10:18:01;5.57;;;1.45;;
52708;SDS011;38606;52.986;6.980;2023-06-04T10:20:28;6.30;;;1.90;;
52708;SDS011;38606;52.986;6.980;2023-06-04T10:22:53;6.18;;;1.52;;
52708;SDS011;38606;52.986;6.980;2023-06-04T10:25:20;5.47;;;2.22;;
52708;SDS011;38606;52.986;6.980;2023-06-04T10:27:46;8.88;;;1.65;;
52708;SDS011;38606;52.986;6.980;2023-06-04T10:30:12;3.13;;;1.23;;
52708;SDS011;38606;52.986;6.980;2023-06-04T10:32:38;2.80;;;1.55;;
52708;SDS011;38606;52.986;6.980;2023-06-04T10:35:05;3.75;;;1.38;;
52708;SDS011;38606;52.986;6.980;2023-06-04T10:37:34;4.57;;;1.70;;
52708;SDS011;38606;52.986;6.980;2023-06-04T10:40:00;3.03;;;1.50;;
52708;SDS011;38606;52.986;6.980;2023-06-04T10:42:26;5.43;;;1.85;;
52708;SDS011;38606;52.986;6.980;2023-06-04T10:45:02;2.55;;;1.35;;
52708;SDS011;38606;52.986;6.980;2023-06-04T10:47:28;2.05;;;1.20;;
52708;SDS011;38606;52.986;6.980;2023-06-04T10:50:11;5.90;;;1.50;;
52708;SDS011;38606;52.986;6.980;2023-06-04T10:52:39;4.32;;;1.48;;
52708;SDS011;38606;52.986;6.980;2023-06-04T10:55:19;3.90;;;1.73;;
52708;SDS011;38606;52.986;6.980;2023-06-04T10:57:58;3.78;;;1.40;;
52708;SDS011;38606;52.986;6.980;2023-06-04T11:00:42;5.10;;;1.10;;
52708;SDS011;38606;52.986;6.980;2023-06-04T11:03:11;5.03;;;1.42;;
52708;SDS011;38606;52.986;6.980;2023-06-04T11:05:38;2.60;;;1.20;;
52708;SDS011;38606;52.986;6.980;2023-06-04T11:08:05;3.17;;;1.20;;
52708;SDS011;38606;52.986;6.980;2023-06-04T11:10:33;3.33;;;1.10;;
52708;SDS011;38606;52.986;6.980;2023-06-04T11:13:22;5.82;;;1.73;;
52708;SDS011;38606;52.986;6.980;2023-06-04T11:15:51;5.57;;;1.50;;
52708;SDS011;38606;52.986;6.980;2023-06-04T11:18:17;3.88;;;1.10;;
52708;SDS011;38606;52.986;6.980;2023-06-04T11:20:46;1.92;;;1.08;;
52708;SDS011;38606;52.986;6.980;2023-06-04T11:23:13;4.63;;;1.17;;
52708;SDS011;38606;52.986;6.980;2023-06-04T11:25:40;2.22;;;1.17;;
52708;SDS011;38606;52.986;6.980;2023-06-04T11:28:16;4.93;;;1.40;;
52708;SDS011;38606;52.986;6.980;2023-06-04T11:30:43;2.38;;;1.20;;
52708;SDS011;38606;52.986;6.980;2023-06-04T11:33:09;3.13;;;1.23;;
52708;SDS011;38606;52.986;6.980;2023-06-04T11:35:42;2.03;;;1.00;;
52708;SDS011;38606;52.986;6.980;2023-06-04T11:40:34;2.88;;;0.88;;
52708;SDS011;38606;52.986;6.980;2023-06-04T11:43:01;3.17;;;1.13;;
52708;SDS011;38606;52.986;6.980;2023-06-04T11:45:27;3.33;;;1.27;;
52708;SDS011;38606;52.986;6.980;2023-06-04T11:47:55;1.55;;;1.05;;
52708;SDS011;38606;52.986;6.980;2023-06-04T11:50:22;3.05;;;1.08;;
52708;SDS011;38606;52.986;6.980;2023-06-04T11:52:52;2.63;;;1.00;;
52708;SDS011;38606;52.986;6.980;2023-06-04T11:55:18;4.07;;;1.23;;
52708;SDS011;38606;52.986;6.980;2023-06-04T11:57:47;2.65;;;1.20;;
52708;SDS011;38606;52.986;6.980;2023-06-04T12:00:14;2.10;;;1.00;;
52708;SDS011;38606;52.986;6.980;2023-06-04T12:02:54;2.05;;;1.25;;
52708;SDS011;38606;52.986;6.980;2023-06-04T12:05:21;3.65;;;1.40;;
52708;SDS011;38606;52.986;6.980;2023-06-04T12:07:50;2.10;;;1.17;;
52708;SDS011;38606;52.986;6.980;2023-06-04T12:10:20;3.47;;;1.50;;
52708;SDS011;38606;52.986;6.980;2023-06-04T12:12:46;4.47;;;1.55;;
52708;SDS011;38606;52.986;6.980;2023-06-04T12:15:19;2.80;;;1.60;;
52708;SDS011;38606;52.986;6.980;2023-06-04T12:17:51;3.90;;;1.25;;
52708;SDS011;38606;52.986;6.980;2023-06-04T12:22:56;4.97;;;1.45;;
52708;SDS011;38606;52.986;6.980;2023-06-04T12:25:25;5.32;;;1.27;;
52708;SDS011;38606;52.986;6.980;2023-06-04T12:27:52;1.38;;;1.08;;
52708;SDS011;38606;52.986;6.980;2023-06-04T12:30:18;3.15;;;1.50;;
52708;SDS011;38606;52.986;6.980;2023-06-04T12:32:43;3.03;;;1.20;;
52708;SDS011;38606;52.986;6.980;2023-06-04T12:35:10;2.50;;;1.20;;
52708;SDS011;38606;52.986;6.980;2023-06-04T12:37:36;2.33;;;1.10;;
52708;SDS011;38606;52.986;6.980;2023-06-04T12:40:02;4.38;;;1.40;;
52708;SDS011;38606;52.986;6.980;2023-06-04T12:42:31;4.97;;;1.42;;
52708;SDS011;38606;52.986;6.980;2023-06-04T12:44:57;4.80;;;1.50;;
52708;SDS011;38606;52.986;6.980;2023-06-04T12:47:23;2.72;;;1.27;;
52708;SDS011;38606;52.986;6.980;2023-06-04T12:49:49;3.60;;;1.25;;
52708;SDS011;38606;52.986;6.980;2023-06-04T12:52:16;2.67;;;1.40;;
52708;SDS011;38606;52.986;6.980;2023-06-04T12:54:42;5.32;;;1.42;;
52708;SDS011;38606;52.986;6.980;2023-06-04T12:57:08;2.70;;;1.20;;
52708;SDS011;38606;52.986;6.980;2023-06-04T12:59:35;3.63;;;1.33;;
52708;SDS011;38606;52.986;6.980;2023-06-04T13:02:00;2.45;;;1.10;;
52708;SDS011;38606;52.986;6.980;2023-06-04T13:04:26;3.33;;;1.35;;
52708;SDS011;38606;52.986;6.980;2023-06-04T13:06:52;2.40;;;1.30;;
52708;SDS011;38606;52.986;6.980;2023-06-04T13:09:24;4.60;;;1.25;;
52708;SDS011;38606;52.986;6.980;2023-06-04T13:11:50;2.55;;;1.40;;
52708;SDS011;38606;52.986;6.980;2023-06-04T13:14:16;4.13;;;1.30;;
52708;SDS011;38606;52.986;6.980;2023-06-04T13:16:42;2.58;;;1.30;;
52708;SDS011;38606;52.986;6.980;2023-06-04T13:19:10;2.65;;;1.38;;
52708;SDS011;38606;52.986;6.980;2023-06-04T13:21:36;2.45;;;1.30;;
52708;SDS011;38606;52.986;6.980;2023-06-04T13:24:05;2.28;;;1.40;;
52708;SDS011;38606;52.986;6.980;2023-06-04T13:26:32;3.35;;;1.42;;
52708;SDS011;38606;52.986;6.980;2023-06-04T13:28:58;6.13;;;1.67;;
52708;SDS011;38606;52.986;6.980;2023-06-04T13:31:24;3.75;;;1.27;;
52708;SDS011;38606;52.986;6.980;2023-06-04T13:33:50;3.88;;;1.40;;
52708;SDS011;38606;52.986;6.980;2023-06-04T13:36:15;2.72;;;1.25;;
52708;SDS011;38606;52.986;6.980;2023-06-04T13:38:41;4.53;;;1.30;;
52708;SDS011;38606;52.986;6.980;2023-06-04T13:41:08;3.80;;;1.40;;
52708;SDS011;38606;52.986;6.980;2023-06-04T13:43:37;4.10;;;1.38;;
52708;SDS011;38606;52.986;6.980;2023-06-04T13:46:03;4.20;;;1.35;;
52708;SDS011;38606;52.986;6.980;2023-06-04T13:48:29;3.40;;;1.30;;
52708;SDS011;38606;52.986;6.980;2023-06-04T13:50:55;4.75;;;1.60;;
52708;SDS011;38606;52.986;6.980;2023-06-04T13:53:21;4.25;;;1.40;;
52708;SDS011;38606;52.986;6.980;2023-06-04T13:55:46;2.70;;;1.50;;
52708;SDS011;38606;52.986;6.980;2023-06-04T13:58:12;2.65;;;1.52;;
52708;SDS011;38606;52.986;6.980;2023-06-04T14:00:39;3.78;;;1.35;;
52708;SDS011;38606;52.986;6.980;2023-06-04T14:03:05;4.70;;;1.50;;
52708;SDS011;38606;52.986;6.980;2023-06-04T14:05:31;3.38;;;1.73;;
52708;SDS011;38606;52.986;6.980;2023-06-04T14:07:57;2.83;;;1.55;;
52708;SDS011;38606;52.986;6.980;2023-06-04T14:10:23;2.78;;;1.30;;
52708;SDS011;38606;52.986;6.980;2023-06-04T14:12:48;4.18;;;1.77;;
52708;SDS011;38606;52.986;6.980;2023-06-04T14:15:15;6.03;;;1.60;;
52708;SDS011;38606;52.986;6.980;2023-06-04T14:17:40;2.38;;;1.40;;
52708;SDS011;38606;52.986;6.980;2023-06-04T14:20:06;2.35;;;1.20;;
52708;SDS011;38606;52.986;6.980;2023-06-04T14:22:36;3.22;;;1.55;;
52708;SDS011;38606;52.986;6.980;2023-06-04T14:25:06;3.42;;;1.88;;
52708;SDS011;38606;52.986;6.980;2023-06-04T14:27:33;5.70;;;1.92;;
52708;SDS011;38606;52.986;6.980;2023-06-04T14:30:00;3.38;;;1.80;;
52708;SDS011;38606;52.986;6.980;2023-06-04T14:32:27;5.60;;;1.90;;
52708;SDS011;38606;52.986;6.980;2023-06-04T14:34:53;4.03;;;1.50;;
52708;SDS011;38606;52.986;6.980;2023-06-04T14:37:20;4.38;;;1.95;;
52708;SDS011;38606;52.986;6.980;2023-06-04T14:39:46;6.30;;;2.40;;
52708;SDS011;38606;52.986;6.980;2023-06-04T14:42:12;5.43;;;2.03;;
52708;SDS011;38606;52.986;6.980;2023-06-04T14:44:38;4.38;;;1.70;;
52708;SDS011;38606;52.986;6.980;2023-06-04T14:47:04;3.35;;;1.40;;
52708;SDS011;38606;52.986;6.980;2023-06-04T14:49:30;5.47;;;2.10;;
52708;SDS011;38606;52.986;6.980;2023-06-04T14:51:56;4.70;;;1.65;;